sensor_id;sensor_type;location;lat;lon;timestamp;P1;durP1;ratioP1;P2;durP2;ratioP2
29320;SDS011;16323;51.130;6.612;2023-06-22T00:00:40;1.90;;;1.50;;
29320;SDS011;16323;51.130;6.612;2023-06-22T00:03:07;2.00;;;1.40;;
29320;SDS011;16323;51.130;6.612;2023-06-22T00:05:34;1.60;;;1.40;;
29320;SDS011;16323;51.130;6.612;2023-06-22T00:08:02;2.22;;;1.60;;
29320;SDS011;16323;51.130;6.612;2023-06-22T00:10:30;2.88;;;1.60;;
29320;SDS011;16323;51.130;6.612;2023-06-22T00:12:57;2.03;;;1.30;;
29320;SDS011;16323;51.130;6.612;2023-06-22T00:15:25;1.83;;;1.20;;
29320;SDS011;16323;51.130;6.612;2023-06-22T00:17:53;2.53;;;1.67;;
29320;SDS011;16323;51.130;6.612;2023-06-22T00:20:19;1.90;;;1.40;;
29320;SDS011;16323;51.130;6.612;2023-06-22T00:22:47;1.20;;;1.10;;
29320;SDS011;16323;51.130;6.612;2023-06-22T00:25:14;1.15;;;1.05;;
29320;SDS011;16323;51.130;6.612;2023-06-22T00:27:41;1.77;;;1.30;;
29320;SDS011;16323;51.130;6.612;2023-06-22T00:30:08;1.83;;;1.48;;
29320;SDS011;16323;51.130;6.612;2023-06-22T00:32:37;1.77;;;1.30;;
29320;SDS011;16323;51.130;6.612;2023-06-22T00:35:04;2.20;;;1.50;;
29320;SDS011;16323;51.130;6.612;2023-06-22T00:37:31;1.70;;;1.30;;
29320;SDS011;16323;51.130;6.612;2023-06-22T00:39:57;2.08;;;1.30;;
29320;SDS011;16323;51.130;6.612;2023-06-22T00:42:24;1.63;;;1.33;;
29320;SDS011;16323;51.130;6.612;2023-06-22T00:44:51;1.40;;;1.20;;
29320;SDS011;16323;51.130;6.612;2023-06-22T00:47:17;1.73;;;1.33;;
29320;SDS011;16323;51.130;6.612;2023-06-22T00:49:46;2.60;;;1.40;;
29320;SDS011;16323;51.130;6.612;2023-06-22T00:52:16;1.70;;;1.50;;
29320;SDS011;16323;51.130;6.612;2023-06-22T00:54:45;1.88;;;1.40;;
29320;SDS011;16323;51.130;6.612;2023-06-22T00:57:14;2.45;;;1.50;;
29320;SDS011;16323;51.130;6.612;2023-06-22T00:59:41;1.20;;;1.10;;
29320;SDS011;16323;51.130;6.612;2023-06-22T01:02:09;2.03;;;1.58;;
29320;SDS011;16323;51.130;6.612;2023-06-22T01:04:37;2.47;;;1.42;;
29320;SDS011;16323;51.130;6.612;2023-06-22T01:07:07;1.70;;;1.17;;
29320;SDS011;16323;51.130;6.612;2023-06-22T01:09:40;3.13;;;1.30;;
29320;SDS011;16323;51.130;6.612;2023-06-22T01:12:12;1.88;;;1.27;;
29320;SDS011;16323;51.130;6.612;2023-06-22T01:14:42;1.67;;;1.15;;
29320;SDS011;16323;51.130;6.612;2023-06-22T01:17:13;1.80;;;1.30;;
29320;SDS011;16323;51.130;6.612;2023-06-22T01:19:43;1.80;;;1.30;;
29320;SDS011;16323;51.130;6.612;2023-06-22T01:22:14;2.20;;;1.23;;
29320;SDS011;16323;51.130;6.612;2023-06-22T01:24:45;1.55;;;1.10;;
29320;SDS011;16323;51.130;6.612;2023-06-22T01:27:26;1.52;;;1.30;;
29320;SDS011;16323;51.130;6.612;2023-06-22T01:30:01;1.73;;;1.38;;
29320;SDS011;16323;51.130;6.612;2023-06-22T01:32:30;1.23;;;1.13;;
29320;SDS011;16323;51.130;6.612;2023-06-22T01:35:00;1.60;;;1.40;;
29320;SDS011;16323;51.130;6.612;2023-06-22T01:37:29;3.25;;;1.75;;
29320;SDS011;16323;51.130;6.612;2023-06-22T01:39:57;1.90;;;1.38;;
29320;SDS011;16323;51.130;6.612;2023-06-22T01:42:25;2.05;;;1.50;;
29320;SDS011;16323;51.130;6.612;2023-06-22T01:44:52;1.88;;;1.40;;
29320;SDS011;16323;51.130;6.612;2023-06-22T01:47:21;1.50;;;1.20;;
29320;SDS011;16323;51.130;6.612;2023-06-22T01:49:49;1.48;;;1.30;;
29320;SDS011;16323;51.130;6.612;2023-06-22T01:52:17;2.47;;;1.50;;
29320;SDS011;16323;51.130;6.612;2023-06-22T01:54:46;1.65;;;1.20;;
29320;SDS011;16323;51.130;6.612;2023-06-22T01:57:13;2.15;;;1.65;;
29320;SDS011;16323;51.130;6.612;2023-06-22T01:59:42;1.48;;;1.38;;
29320;SDS011;16323;51.130;6.612;2023-06-22T02:02:16;2.53;;;1.45;;
29320;SDS011;16323;51.130;6.612;2023-06-22T02:04:52;2.38;;;1.38;;
29320;SDS011;16323;51.130;6.612;2023-06-22T02:07:23;1.75;;;1.30;;
29320;SDS011;16323;51.130;6.612;2023-06-22T02:09:55;2.03;;;1.50;;
29320;SDS011;16323;51.130;6.612;2023-06-22T02:12:24;2.67;;;1.50;;
29320;SDS011;16323;51.130;6.612;2023-06-22T02:14:52;3.10;;;1.38;;
29320;SDS011;16323;51.130;6.612;2023-06-22T02:17:21;1.63;;;1.40;;
29320;SDS011;16323;51.130;6.612;2023-06-22T02:19:49;1.58;;;1.25;;
29320;SDS011;16323;51.130;6.612;2023-06-22T02:22:16;2.05;;;1.60;;
29320;SDS011;16323;51.130;6.612;2023-06-22T02:24:43;2.47;;;1.50;;
29320;SDS011;16323;51.130;6.612;2023-06-22T02:27:10;2.25;;;1.40;;
29320;SDS011;16323;51.130;6.612;2023-06-22T02:29:37;1.80;;;1.35;;
29320;SDS011;16323;51.130;6.612;2023-06-22T02:32:04;1.88;;;1.30;;
29320;SDS011;16323;51.130;6.612;2023-06-22T02:34:32;2.03;;;1.30;;
29320;SDS011;16323;51.130;6.612;2023-06-22T02:36:59;2.38;;;1.48;;
29320;SDS011;16323;51.130;6.612;2023-06-22T02:39:27;1.90;;;1.67;;
29320;SDS011;16323;51.130;6.612;2023-06-22T02:41:54;2.03;;;1.45;;
29320;SDS011;16323;51.130;6.612;2023-06-22T02:44:21;1.90;;;1.20;;
29320;SDS011;16323;51.130;6.612;2023-06-22T02:46:48;2.20;;;1.48;;
29320;SDS011;16323;51.130;6.612;2023-06-22T02:49:15;1.83;;;1.40;;
29320;SDS011;16323;51.130;6.612;2023-06-22T02:51:44;2.10;;;1.30;;
29320;SDS011;16323;51.130;6.612;2023-06-22T02:54:12;1.90;;;1.35;;
29320;SDS011;16323;51.130;6.612;2023-06-22T02:56:39;2.83;;;1.70;;
29320;SDS011;16323;51.130;6.612;2023-06-22T02:59:08;2.53;;;1.40;;
29320;SDS011;16323;51.130;6.612;2023-06-22T03:01:35;1.75;;;1.55;;
29320;SDS011;16323;51.130;6.612;2023-06-22T03:04:04;1.52;;;1.38;;
29320;SDS011;16323;51.130;6.612;2023-06-22T03:06:31;2.65;;;1.63;;
29320;SDS011;16323;51.130;6.612;2023-06-22T03:09:00;2.28;;;1.50;;
29320;SDS011;16323;51.130;6.612;2023-06-22T03:11:29;1.73;;;1.52;;
29320;SDS011;16323;51.130;6.612;2023-06-22T03:13:55;1.73;;;1.33;;
29320;SDS011;16323;51.130;6.612;2023-06-22T03:16:22;1.80;;;1.50;;
29320;SDS011;16323;51.130;6.612;2023-06-22T03:18:49;1.90;;;1.65;;
29320;SDS011;16323;51.130;6.612;2023-06-22T03:21:16;1.90;;;1.60;;
29320;SDS011;16323;51.130;6.612;2023-06-22T03:23:43;2.03;;;1.50;;
29320;SDS011;16323;51.130;6.612;2023-06-22T03:26:11;2.38;;;1.58;;
29320;SDS011;16323;51.130;6.612;2023-06-22T03:28:38;2.33;;;1.98;;
29320;SDS011;16323;51.130;6.612;2023-06-22T03:31:04;2.35;;;1.88;;
29320;SDS011;16323;51.130;6.612;2023-06-22T03:33:32;2.38;;;1.60;;
29320;SDS011;16323;51.130;6.612;2023-06-22T03:35:59;3.08;;;2.10;;
29320;SDS011;16323;51.130;6.612;2023-06-22T03:38:26;2.75;;;1.95;;
29320;SDS011;16323;51.130;6.612;2023-06-22T03:40:52;3.40;;;2.25;;
29320;SDS011;16323;51.130;6.612;2023-06-22T03:43:20;4.03;;;1.90;;
29320;SDS011;16323;51.130;6.612;2023-06-22T03:45:47;3.00;;;1.65;;
29320;SDS011;16323;51.130;6.612;2023-06-22T03:48:14;2.67;;;2.00;;
29320;SDS011;16323;51.130;6.612;2023-06-22T03:50:41;2.20;;;1.52;;
29320;SDS011;16323;51.130;6.612;2023-06-22T03:53:09;3.47;;;1.77;;
29320;SDS011;16323;51.130;6.612;2023-06-22T03:55:35;1.98;;;1.63;;
29320;SDS011;16323;51.130;6.612;2023-06-22T03:58:02;3.20;;;2.03;;
29320;SDS011;16323;51.130;6.612;2023-06-22T04:00:32;3.42;;;1.85;;
29320;SDS011;16323;51.130;6.612;2023-06-22T04:02:58;2.42;;;2.00;;
29320;SDS011;16323;51.130;6.612;2023-06-22T04:05:25;2.97;;;1.73;;
29320;SDS011;16323;51.130;6.612;2023-06-22T04:07:52;2.05;;;1.38;;
29320;SDS011;16323;51.130;6.612;2023-06-22T04:10:19;2.20;;;1.80;;
29320;SDS011;16323;51.130;6.612;2023-06-22T04:12:46;5.45;;;1.90;;
29320;SDS011;16323;51.130;6.612;2023-06-22T04:15:13;2.88;;;1.98;;
29320;SDS011;16323;51.130;6.612;2023-06-22T04:17:41;3.20;;;2.10;;
29320;SDS011;16323;51.130;6.612;2023-06-22T04:20:08;2.15;;;1.85;;
29320;SDS011;16323;51.130;6.612;2023-06-22T04:22:35;2.38;;;1.90;;
29320;SDS011;16323;51.130;6.612;2023-06-22T04:25:02;3.38;;;2.15;;
29320;SDS011;16323;51.130;6.612;2023-06-22T04:27:29;2.50;;;1.70;;
29320;SDS011;16323;51.130;6.612;2023-06-22T04:29:55;2.22;;;1.70;;
29320;SDS011;16323;51.130;6.612;2023-06-22T04:32:25;3.03;;;2.08;;
29320;SDS011;16323;51.130;6.612;2023-06-22T04:34:53;2.13;;;1.60;;
29320;SDS011;16323;51.130;6.612;2023-06-22T04:37:20;2.70;;;1.90;;
29320;SDS011;16323;51.130;6.612;2023-06-22T04:39:48;2.13;;;1.85;;
29320;SDS011;16323;51.130;6.612;2023-06-22T04:42:15;2.60;;;1.90;;
29320;SDS011;16323;51.130;6.612;2023-06-22T04:44:42;3.28;;;1.73;;
29320;SDS011;16323;51.130;6.612;2023-06-22T04:47:08;2.35;;;1.80;;
29320;SDS011;16323;51.130;6.612;2023-06-22T04:49:35;3.35;;;2.17;;
29320;SDS011;16323;51.130;6.612;2023-06-22T04:52:05;2.15;;;1.65;;
29320;SDS011;16323;51.130;6.612;2023-06-22T04:54:33;2.35;;;1.88;;
29320;SDS011;16323;51.130;6.612;2023-06-22T04:57:01;2.75;;;1.90;;
29320;SDS011;16323;51.130;6.612;2023-06-22T04:59:30;2.92;;;1.92;;
29320;SDS011;16323;51.130;6.612;2023-06-22T05:01:57;2.15;;;1.60;;
29320;SDS011;16323;51.130;6.612;2023-06-22T05:04:25;1.83;;;1.60;;
29320;SDS011;16323;51.130;6.612;2023-06-22T05:06:53;2.53;;;1.75;;
29320;SDS011;16323;51.130;6.612;2023-06-22T05:09:22;2.75;;;1.58;;
29320;SDS011;16323;51.130;6.612;2023-06-22T05:11:49;2.28;;;1.83;;
29320;SDS011;16323;51.130;6.612;2023-06-22T05:14:17;2.25;;;1.80;;
29320;SDS011;16323;51.130;6.612;2023-06-22T05:16:44;2.53;;;2.10;;
29320;SDS011;16323;51.130;6.612;2023-06-22T05:19:11;1.98;;;1.77;;
29320;SDS011;16323;51.130;6.612;2023-06-22T05:21:38;1.92;;;1.65;;
29320;SDS011;16323;51.130;6.612;2023-06-22T05:24:05;3.10;;;2.05;;
29320;SDS011;16323;51.130;6.612;2023-06-22T05:26:33;2.63;;;1.77;;
29320;SDS011;16323;51.130;6.612;2023-06-22T05:29:01;2.17;;;1.70;;
29320;SDS011;16323;51.130;6.612;2023-06-22T05:31:29;2.60;;;1.80;;
29320;SDS011;16323;51.130;6.612;2023-06-22T05:33:56;3.05;;;2.03;;
29320;SDS011;16323;51.130;6.612;2023-06-22T05:36:23;2.67;;;1.80;;
29320;SDS011;16323;51.130;6.612;2023-06-22T05:38:50;3.38;;;2.13;;
29320;SDS011;16323;51.130;6.612;2023-06-22T05:41:18;3.38;;;2.38;;
29320;SDS011;16323;51.130;6.612;2023-06-22T05:43:46;3.38;;;2.10;;
29320;SDS011;16323;51.130;6.612;2023-06-22T05:46:13;3.00;;;2.38;;
29320;SDS011;16323;51.130;6.612;2023-06-22T05:48:40;2.90;;;2.05;;
29320;SDS011;16323;51.130;6.612;2023-06-22T05:51:06;2.13;;;1.85;;
29320;SDS011;16323;51.130;6.612;2023-06-22T05:53:33;1.85;;;1.65;;
29320;SDS011;16323;51.130;6.612;2023-06-22T05:56:00;2.50;;;1.90;;
29320;SDS011;16323;51.130;6.612;2023-06-22T05:58:27;1.70;;;1.50;;
29320;SDS011;16323;51.130;6.612;2023-06-22T06:00:55;2.58;;;2.00;;
29320;SDS011;16323;51.130;6.612;2023-06-22T06:03:22;2.45;;;1.88;;
29320;SDS011;16323;51.130;6.612;2023-06-22T06:05:48;2.00;;;1.70;;
29320;SDS011;16323;51.130;6.612;2023-06-22T06:08:15;3.80;;;1.80;;
29320;SDS011;16323;51.130;6.612;2023-06-22T06:10:42;3.25;;;2.28;;
29320;SDS011;16323;51.130;6.612;2023-06-22T06:13:08;2.85;;;1.58;;
29320;SDS011;16323;51.130;6.612;2023-06-22T06:15:35;2.30;;;2.05;;
29320;SDS011;16323;51.130;6.612;2023-06-22T06:18:03;2.72;;;1.95;;
29320;SDS011;16323;51.130;6.612;2023-06-22T06:20:31;2.08;;;1.88;;
29320;SDS011;16323;51.130;6.612;2023-06-22T06:22:58;2.15;;;1.95;;
29320;SDS011;16323;51.130;6.612;2023-06-22T06:25:25;2.92;;;2.40;;
29320;SDS011;16323;51.130;6.612;2023-06-22T06:27:52;2.75;;;2.38;;
29320;SDS011;16323;51.130;6.612;2023-06-22T06:30:19;2.28;;;2.00;;
29320;SDS011;16323;51.130;6.612;2023-06-22T06:32:47;2.42;;;2.10;;
29320;SDS011;16323;51.130;6.612;2023-06-22T06:35:15;3.42;;;2.35;;
29320;SDS011;16323;51.130;6.612;2023-06-22T06:37:42;3.50;;;2.40;;
29320;SDS011;16323;51.130;6.612;2023-06-22T06:40:11;3.45;;;2.50;;
29320;SDS011;16323;51.130;6.612;2023-06-22T06:42:39;2.83;;;2.42;;
29320;SDS011;16323;51.130;6.612;2023-06-22T06:45:09;3.50;;;2.53;;
29320;SDS011;16323;51.130;6.612;2023-06-22T06:47:36;2.15;;;1.92;;
29320;SDS011;16323;51.130;6.612;2023-06-22T06:50:04;2.20;;;1.92;;
29320;SDS011;16323;51.130;6.612;2023-06-22T06:52:33;3.60;;;2.17;;
29320;SDS011;16323;51.130;6.612;2023-06-22T06:55:00;3.47;;;2.22;;
29320;SDS011;16323;51.130;6.612;2023-06-22T06:57:29;2.97;;;2.33;;
29320;SDS011;16323;51.130;6.612;2023-06-22T06:59:56;2.78;;;2.17;;
29320;SDS011;16323;51.130;6.612;2023-06-22T07:02:23;2.45;;;1.98;;
29320;SDS011;16323;51.130;6.612;2023-06-22T07:04:51;3.80;;;2.13;;
29320;SDS011;16323;51.130;6.612;2023-06-22T07:07:17;2.25;;;2.00;;
29320;SDS011;16323;51.130;6.612;2023-06-22T07:09:45;3.28;;;2.42;;
29320;SDS011;16323;51.130;6.612;2023-06-22T07:12:12;4.53;;;2.63;;
29320;SDS011;16323;51.130;6.612;2023-06-22T07:14:39;3.17;;;2.72;;
29320;SDS011;16323;51.130;6.612;2023-06-22T07:17:06;3.20;;;2.15;;
29320;SDS011;16323;51.130;6.612;2023-06-22T07:19:32;4.07;;;2.15;;
29320;SDS011;16323;51.130;6.612;2023-06-22T07:21:59;3.13;;;2.28;;
29320;SDS011;16323;51.130;6.612;2023-06-22T07:24:26;2.40;;;2.13;;
29320;SDS011;16323;51.130;6.612;2023-06-22T07:26:55;3.85;;;3.35;;
29320;SDS011;16323;51.130;6.612;2023-06-22T07:29:22;3.65;;;2.75;;
29320;SDS011;16323;51.130;6.612;2023-06-22T07:31:49;3.17;;;2.80;;
29320;SDS011;16323;51.130;6.612;2023-06-22T07:34:17;4.60;;;3.10;;
29320;SDS011;16323;51.130;6.612;2023-06-22T07:36:44;4.85;;;3.38;;
29320;SDS011;16323;51.130;6.612;2023-06-22T07:39:11;4.30;;;2.45;;
29320;SDS011;16323;51.130;6.612;2023-06-22T07:41:38;3.10;;;2.38;;
29320;SDS011;16323;51.130;6.612;2023-06-22T07:44:07;3.00;;;2.70;;
29320;SDS011;16323;51.130;6.612;2023-06-22T07:46:34;2.92;;;2.42;;
29320;SDS011;16323;51.130;6.612;2023-06-22T07:49:01;3.08;;;2.45;;
29320;SDS011;16323;51.130;6.612;2023-06-22T07:51:28;3.38;;;2.45;;
29320;SDS011;16323;51.130;6.612;2023-06-22T07:53:55;3.22;;;2.63;;
29320;SDS011;16323;51.130;6.612;2023-06-22T07:56:21;3.90;;;2.53;;
29320;SDS011;16323;51.130;6.612;2023-06-22T07:58:48;2.53;;;2.15;;
29320;SDS011;16323;51.130;6.612;2023-06-22T08:01:16;2.70;;;2.40;;
29320;SDS011;16323;51.130;6.612;2023-06-22T08:03:45;3.65;;;2.65;;
29320;SDS011;16323;51.130;6.612;2023-06-22T08:06:13;3.80;;;2.72;;
29320;SDS011;16323;51.130;6.612;2023-06-22T08:08:40;3.17;;;2.20;;
29320;SDS011;16323;51.130;6.612;2023-06-22T08:11:07;3.65;;;2.70;;
29320;SDS011;16323;51.130;6.612;2023-06-22T08:13:34;3.08;;;2.22;;
29320;SDS011;16323;51.130;6.612;2023-06-22T08:16:01;2.92;;;2.40;;
29320;SDS011;16323;51.130;6.612;2023-06-22T08:18:29;3.25;;;2.28;;
29320;SDS011;16323;51.130;6.612;2023-06-22T08:20:56;3.35;;;2.38;;
29320;SDS011;16323;51.130;6.612;2023-06-22T08:23:23;2.85;;;2.38;;
29320;SDS011;16323;51.130;6.612;2023-06-22T08:25:50;3.35;;;2.45;;
29320;SDS011;16323;51.130;6.612;2023-06-22T08:28:17;2.78;;;2.33;;
29320;SDS011;16323;51.130;6.612;2023-06-22T08:30:43;2.67;;;2.22;;
29320;SDS011;16323;51.130;6.612;2023-06-22T08:33:10;2.55;;;1.95;;
29320;SDS011;16323;51.130;6.612;2023-06-22T08:35:39;3.00;;;2.30;;
29320;SDS011;16323;51.130;6.612;2023-06-22T08:38:05;2.38;;;2.15;;
29320;SDS011;16323;51.130;6.612;2023-06-22T08:40:32;2.95;;;2.22;;
29320;SDS011;16323;51.130;6.612;2023-06-22T08:42:59;3.13;;;2.10;;
29320;SDS011;16323;51.130;6.612;2023-06-22T08:45:26;2.78;;;2.30;;
29320;SDS011;16323;51.130;6.612;2023-06-22T08:47:53;3.05;;;2.15;;
29320;SDS011;16323;51.130;6.612;2023-06-22T08:50:20;2.33;;;1.90;;
29320;SDS011;16323;51.130;6.612;2023-06-22T08:52:48;3.80;;;2.38;;
29320;SDS011;16323;51.130;6.612;2023-06-22T08:55:15;2.83;;;2.13;;
29320;SDS011;16323;51.130;6.612;2023-06-22T08:57:41;2.85;;;2.40;;
29320;SDS011;16323;51.130;6.612;2023-06-22T09:00:09;3.65;;;2.10;;
29320;SDS011;16323;51.130;6.612;2023-06-22T09:02:46;2.42;;;2.22;;
29320;SDS011;16323;51.130;6.612;2023-06-22T09:05:13;2.97;;;2.10;;
29320;SDS011;16323;51.130;6.612;2023-06-22T09:07:40;2.50;;;1.90;;
29320;SDS011;16323;51.130;6.612;2023-06-22T09:10:09;2.65;;;2.33;;
29320;SDS011;16323;51.130;6.612;2023-06-22T09:12:36;2.70;;;2.30;;
29320;SDS011;16323;51.130;6.612;2023-06-22T09:15:04;2.63;;;2.13;;
29320;SDS011;16323;51.130;6.612;2023-06-22T09:17:32;2.75;;;2.33;;
29320;SDS011;16323;51.130;6.612;2023-06-22T09:19:59;2.95;;;2.38;;
29320;SDS011;16323;51.130;6.612;2023-06-22T09:22:27;3.13;;;2.60;;
29320;SDS011;16323;51.130;6.612;2023-06-22T09:24:54;2.78;;;2.13;;
29320;SDS011;16323;51.130;6.612;2023-06-22T09:27:23;2.92;;;2.28;;
29320;SDS011;16323;51.130;6.612;2023-06-22T09:29:50;2.45;;;2.00;;
29320;SDS011;16323;51.130;6.612;2023-06-22T09:32:16;3.35;;;2.53;;
29320;SDS011;16323;51.130;6.612;2023-06-22T09:34:43;2.40;;;2.20;;
29320;SDS011;16323;51.130;6.612;2023-06-22T09:37:10;2.60;;;2.20;;
29320;SDS011;16323;51.130;6.612;2023-06-22T09:39:37;2.30;;;1.98;;
29320;SDS011;16323;51.130;6.612;2023-06-22T09:42:04;2.65;;;2.10;;
29320;SDS011;16323;51.130;6.612;2023-06-22T09:44:32;3.33;;;2.00;;
29320;SDS011;16323;51.130;6.612;2023-06-22T09:46:59;2.63;;;2.25;;
29320;SDS011;16323;51.130;6.612;2023-06-22T09:49:26;3.33;;;2.53;;
29320;SDS011;16323;51.130;6.612;2023-06-22T09:51:53;3.55;;;2.55;;
29320;SDS011;16323;51.130;6.612;2023-06-22T09:54:20;2.70;;;2.30;;
29320;SDS011;16323;51.130;6.612;2023-06-22T09:56:47;2.60;;;2.35;;
29320;SDS011;16323;51.130;6.612;2023-06-22T09:59:13;3.10;;;2.58;;
29320;SDS011;16323;51.130;6.612;2023-06-22T10:01:41;2.25;;;2.05;;
29320;SDS011;16323;51.130;6.612;2023-06-22T10:04:08;2.88;;;2.40;;
29320;SDS011;16323;51.130;6.612;2023-06-22T10:06:35;2.58;;;2.30;;
29320;SDS011;16323;51.130;6.612;2023-06-22T10:09:05;2.80;;;2.40;;
29320;SDS011;16323;51.130;6.612;2023-06-22T10:11:31;2.85;;;2.50;;
29320;SDS011;16323;51.130;6.612;2023-06-22T10:14:00;2.45;;;2.20;;
29320;SDS011;16323;51.130;6.612;2023-06-22T10:16:29;3.20;;;2.60;;
29320;SDS011;16323;51.130;6.612;2023-06-22T10:18:58;3.42;;;2.38;;
29320;SDS011;16323;51.130;6.612;2023-06-22T10:21:25;2.35;;;2.08;;
29320;SDS011;16323;51.130;6.612;2023-06-22T10:23:52;2.70;;;2.17;;
29320;SDS011;16323;51.130;6.612;2023-06-22T10:26:19;2.22;;;1.77;;
29320;SDS011;16323;51.130;6.612;2023-06-22T10:28:45;3.20;;;2.47;;
29320;SDS011;16323;51.130;6.612;2023-06-22T10:31:12;2.60;;;1.80;;
29320;SDS011;16323;51.130;6.612;2023-06-22T10:33:39;3.28;;;2.38;;
29320;SDS011;16323;51.130;6.612;2023-06-22T10:36:07;2.38;;;2.05;;
29320;SDS011;16323;51.130;6.612;2023-06-22T10:38:34;2.92;;;1.92;;
29320;SDS011;16323;51.130;6.612;2023-06-22T10:41:01;2.45;;;2.00;;
29320;SDS011;16323;51.130;6.612;2023-06-22T10:43:28;2.50;;;1.88;;
29320;SDS011;16323;51.130;6.612;2023-06-22T10:45:55;2.33;;;1.98;;
29320;SDS011;16323;51.130;6.612;2023-06-22T10:48:21;2.47;;;2.17;;
29320;SDS011;16323;51.130;6.612;2023-06-22T10:50:48;2.42;;;2.10;;
29320;SDS011;16323;51.130;6.612;2023-06-22T10:53:16;2.80;;;2.28;;
29320;SDS011;16323;51.130;6.612;2023-06-22T10:55:43;2.65;;;2.22;;
29320;SDS011;16323;51.130;6.612;2023-06-22T10:58:10;4.50;;;2.40;;
29320;SDS011;16323;51.130;6.612;2023-06-22T11:00:37;3.63;;;2.60;;
29320;SDS011;16323;51.130;6.612;2023-06-22T11:03:03;3.63;;;2.67;;
29320;SDS011;16323;51.130;6.612;2023-06-22T11:05:31;2.97;;;2.40;;
29320;SDS011;16323;51.130;6.612;2023-06-22T11:07:58;2.88;;;2.35;;
29320;SDS011;16323;51.130;6.612;2023-06-22T11:10:26;3.95;;;2.92;;
29320;SDS011;16323;51.130;6.612;2023-06-22T11:12:53;3.78;;;2.90;;
29320;SDS011;16323;51.130;6.612;2023-06-22T11:15:20;3.50;;;2.88;;
29320;SDS011;16323;51.130;6.612;2023-06-22T11:17:47;3.42;;;2.65;;
29320;SDS011;16323;51.130;6.612;2023-06-22T11:20:14;3.53;;;2.70;;
29320;SDS011;16323;51.130;6.612;2023-06-22T11:22:41;5.72;;;3.50;;
29320;SDS011;16323;51.130;6.612;2023-06-22T11:25:08;4.32;;;3.47;;
29320;SDS011;16323;51.130;6.612;2023-06-22T11:27:37;4.03;;;3.08;;
29320;SDS011;16323;51.130;6.612;2023-06-22T11:30:05;4.00;;;3.20;;
29320;SDS011;16323;51.130;6.612;2023-06-22T11:32:33;4.82;;;3.00;;
29320;SDS011;16323;51.130;6.612;2023-06-22T11:35:00;4.80;;;3.63;;
29320;SDS011;16323;51.130;6.612;2023-06-22T11:37:27;4.85;;;3.42;;
29320;SDS011;16323;51.130;6.612;2023-06-22T11:39:54;4.15;;;3.45;;
29320;SDS011;16323;51.130;6.612;2023-06-22T11:42:21;4.78;;;3.92;;
29320;SDS011;16323;51.130;6.612;2023-06-22T11:44:49;5.35;;;4.00;;
29320;SDS011;16323;51.130;6.612;2023-06-22T11:47:16;4.65;;;3.55;;
29320;SDS011;16323;51.130;6.612;2023-06-22T11:49:43;5.53;;;3.80;;
29320;SDS011;16323;51.130;6.612;2023-06-22T11:52:10;5.75;;;3.60;;
29320;SDS011;16323;51.130;6.612;2023-06-22T11:54:37;5.63;;;3.90;;
29320;SDS011;16323;51.130;6.612;2023-06-22T11:57:04;5.35;;;4.10;;
29320;SDS011;16323;51.130;6.612;2023-06-22T11:59:31;4.72;;;4.15;;
29320;SDS011;16323;51.130;6.612;2023-06-22T12:01:59;6.15;;;4.10;;
29320;SDS011;16323;51.130;6.612;2023-06-22T12:04:26;4.63;;;3.90;;
29320;SDS011;16323;51.130;6.612;2023-06-22T12:06:53;6.72;;;3.97;;
29320;SDS011;16323;51.130;6.612;2023-06-22T12:09:19;4.65;;;4.10;;
29320;SDS011;16323;51.130;6.612;2023-06-22T12:11:46;5.22;;;4.30;;
29320;SDS011;16323;51.130;6.612;2023-06-22T12:14:13;6.80;;;4.63;;
29320;SDS011;16323;51.130;6.612;2023-06-22T12:16:40;6.63;;;4.80;;
29320;SDS011;16323;51.130;6.612;2023-06-22T12:19:10;5.38;;;4.25;;
29320;SDS011;16323;51.130;6.612;2023-06-22T12:21:37;5.28;;;4.28;;
29320;SDS011;16323;51.130;6.612;2023-06-22T12:24:04;6.43;;;4.35;;
29320;SDS011;16323;51.130;6.612;2023-06-22T12:26:31;5.97;;;4.57;;
29320;SDS011;16323;51.130;6.612;2023-06-22T12:28:57;5.05;;;4.07;;
29320;SDS011;16323;51.130;6.612;2023-06-22T12:31:24;6.18;;;4.78;;
29320;SDS011;16323;51.130;6.612;2023-06-22T12:33:51;5.85;;;4.40;;
29320;SDS011;16323;51.130;6.612;2023-06-22T12:36:19;5.95;;;4.53;;
29320;SDS011;16323;51.130;6.612;2023-06-22T12:38:46;6.90;;;4.88;;
29320;SDS011;16323;51.130;6.612;2023-06-22T12:41:13;5.45;;;4.53;;
29320;SDS011;16323;51.130;6.612;2023-06-22T12:43:40;6.80;;;4.80;;
29320;SDS011;16323;51.130;6.612;2023-06-22T12:46:06;7.90;;;4.35;;
29320;SDS011;16323;51.130;6.612;2023-06-22T12:48:33;6.72;;;5.22;;
29320;SDS011;16323;51.130;6.612;2023-06-22T12:51:06;5.22;;;4.57;;
29320;SDS011;16323;51.130;6.612;2023-06-22T12:53:34;5.82;;;5.00;;
29320;SDS011;16323;51.130;6.612;2023-06-22T12:56:01;5.93;;;4.75;;
29320;SDS011;16323;51.130;6.612;2023-06-22T12:58:28;7.07;;;5.05;;
29320;SDS011;16323;51.130;6.612;2023-06-22T13:00:55;5.75;;;4.47;;
29320;SDS011;16323;51.130;6.612;2023-06-22T13:03:22;5.68;;;4.93;;
29320;SDS011;16323;51.130;6.612;2023-06-22T13:05:50;6.68;;;4.65;;
29320;SDS011;16323;51.130;6.612;2023-06-22T13:08:17;7.68;;;5.72;;
29320;SDS011;16323;51.130;6.612;2023-06-22T13:10:45;8.18;;;5.28;;
29320;SDS011;16323;51.130;6.612;2023-06-22T13:13:12;6.57;;;5.07;;
29320;SDS011;16323;51.130;6.612;2023-06-22T13:15:39;7.55;;;5.32;;
29320;SDS011;16323;51.130;6.612;2023-06-22T13:18:05;7.72;;;5.75;;
29320;SDS011;16323;51.130;6.612;2023-06-22T13:20:32;7.40;;;4.28;;
29320;SDS011;16323;51.130;6.612;2023-06-22T13:22:59;6.53;;;5.22;;
29320;SDS011;16323;51.130;6.612;2023-06-22T13:25:26;7.22;;;4.93;;
29320;SDS011;16323;51.130;6.612;2023-06-22T13:27:54;6.15;;;4.80;;
29320;SDS011;16323;51.130;6.612;2023-06-22T13:30:21;7.07;;;4.95;;
29320;SDS011;16323;51.130;6.612;2023-06-22T13:32:48;8.18;;;5.82;;
29320;SDS011;16323;51.130;6.612;2023-06-22T13:35:14;6.57;;;5.53;;
29320;SDS011;16323;51.130;6.612;2023-06-22T13:37:41;6.95;;;5.05;;
29320;SDS011;16323;51.130;6.612;2023-06-22T13:40:08;7.15;;;5.53;;
29320;SDS011;16323;51.130;6.612;2023-06-22T13:42:35;5.95;;;5.35;;
29320;SDS011;16323;51.130;6.612;2023-06-22T13:45:04;6.55;;;5.70;;
29320;SDS011;16323;51.130;6.612;2023-06-22T13:47:32;7.38;;;5.93;;
29320;SDS011;16323;51.130;6.612;2023-06-22T13:49:59;7.10;;;5.57;;
29320;SDS011;16323;51.130;6.612;2023-06-22T13:52:26;7.95;;;6.55;;
29320;SDS011;16323;51.130;6.612;2023-06-22T13:54:52;8.70;;;5.15;;
29320;SDS011;16323;51.130;6.612;2023-06-22T13:57:19;7.68;;;5.70;;
29320;SDS011;16323;51.130;6.612;2023-06-22T13:59:46;7.78;;;6.30;;
29320;SDS011;16323;51.130;6.612;2023-06-22T14:02:14;6.82;;;5.93;;
29320;SDS011;16323;51.130;6.612;2023-06-22T14:04:41;8.32;;;6.05;;
29320;SDS011;16323;51.130;6.612;2023-06-22T14:07:08;7.13;;;5.53;;
29320;SDS011;16323;51.130;6.612;2023-06-22T14:09:34;8.43;;;6.15;;
29320;SDS011;16323;51.130;6.612;2023-06-22T14:12:02;7.15;;;6.03;;
29320;SDS011;16323;51.130;6.612;2023-06-22T14:14:30;7.60;;;6.03;;
29320;SDS011;16323;51.130;6.612;2023-06-22T14:16:57;6.85;;;5.57;;
29320;SDS011;16323;51.130;6.612;2023-06-22T14:19:25;6.38;;;5.53;;
29320;SDS011;16323;51.130;6.612;2023-06-22T14:21:52;6.57;;;5.70;;
29320;SDS011;16323;51.130;6.612;2023-06-22T14:24:19;7.70;;;5.78;;
29320;SDS011;16323;51.130;6.612;2023-06-22T14:26:46;7.15;;;6.30;;
29320;SDS011;16323;51.130;6.612;2023-06-22T14:29:13;6.88;;;5.82;;
29320;SDS011;16323;51.130;6.612;2023-06-22T14:31:39;8.00;;;6.00;;
29320;SDS011;16323;51.130;6.612;2023-06-22T14:34:06;8.60;;;6.43;;
29320;SDS011;16323;51.130;6.612;2023-06-22T14:36:34;7.60;;;6.22;;
29320;SDS011;16323;51.130;6.612;2023-06-22T14:39:01;7.00;;;5.72;;
29320;SDS011;16323;51.130;6.612;2023-06-22T14:41:28;8.27;;;6.90;;
29320;SDS011;16323;51.130;6.612;2023-06-22T14:43:56;7.93;;;6.53;;
29320;SDS011;16323;51.130;6.612;2023-06-22T14:46:23;7.25;;;6.30;;
29320;SDS011;16323;51.130;6.612;2023-06-22T14:48:50;8.10;;;6.78;;